createdAt,value
2019-03-09T00:01:15.782Z,23.70
2019-03-09T00:03:43.997Z,23.71
2019-03-09T00:06:13.571Z,23.69
2019-03-09T00:08:41.690Z,23.66
2019-03-09T00:11:09.498Z,23.67
2019-03-09T00:13:37.950Z,23.65
2019-03-09T00:16:06.922Z,23.65
2019-03-09T00:18:34.732Z,23.64
2019-03-09T00:21:02.795Z,23.60
2019-03-09T00:23:49.007Z,23.60
2019-03-09T00:26:30.347Z,23.59
2019-03-09T00:29:24.122Z,23.59
2019-03-09T00:31:55.219Z,23.56
2019-03-09T00:34:22.926Z,23.56
2019-03-09T00:36:51.268Z,23.56
2019-03-09T00:39:19.240Z,23.57
2019-03-09T00:41:47.144Z,23.56
2019-03-09T00:44:15.036Z,23.57
2019-03-09T00:46:42.607Z,23.57
2019-03-09T00:49:11.333Z,23.56
2019-03-09T00:51:39.733Z,23.51
2019-03-09T00:54:07.493Z,23.52
2019-03-09T00:56:35.168Z,23.52
2019-03-09T00:59:02.880Z,23.52
2019-03-09T01:01:32.229Z,23.48
2019-03-09T01:04:00.361Z,23.49
2019-03-09T01:06:28.408Z,23.51
2019-03-09T01:08:56.347Z,23.33
2019-03-09T01:11:24.114Z,23.48
2019-03-09T01:13:51.994Z,23.48
2019-03-09T01:16:19.671Z,23.48
2019-03-09T01:18:47.455Z,23.46
2019-03-09T01:21:15.387Z,23.48
2019-03-09T01:23:43.208Z,23.47
2019-03-09T01:26:11.049Z,23.46
2019-03-09T01:28:39.635Z,23.43
2019-03-09T01:31:07.664Z,23.43
2019-03-09T01:33:36.545Z,23.29
2019-03-09T01:36:04.964Z,21.59
2019-03-09T01:38:32.684Z,20.51
2019-03-09T01:41:00.913Z,19.72
2019-03-09T01:43:28.762Z,19.43
2019-03-09T01:45:58.370Z,18.99
2019-03-09T01:48:26.060Z,18.82
2019-03-09T01:50:53.789Z,18.39
2019-03-09T01:53:21.590Z,18.19
2019-03-09T01:55:50.145Z,18.20
2019-03-09T01:58:17.963Z,17.85
2019-03-09T02:00:45.886Z,17.54
2019-03-09T02:03:13.733Z,17.70
2019-03-09T02:05:41.388Z,17.38
2019-03-09T02:08:09.323Z,17.50
2019-03-09T02:10:37.495Z,17.53
2019-03-09T02:13:06.287Z,17.45
2019-03-09T02:15:34.451Z,17.32
2019-03-09T02:18:03.999Z,17.17
2019-03-09T02:20:31.961Z,17.17
2019-03-09T02:22:59.932Z,16.98
2019-03-09T02:25:28.087Z,17.00
2019-03-09T02:27:56.968Z,16.98
2019-03-09T02:30:25.126Z,17.09
2019-03-09T02:32:52.796Z,17.07
2019-03-09T02:35:20.493Z,16.91
2019-03-09T02:37:48.153Z,16.84
2019-03-09T02:40:23.998Z,16.91
2019-03-09T02:42:51.791Z,16.90
2019-03-09T02:45:21.839Z,16.86
2019-03-09T02:47:50.506Z,16.94
2019-03-09T02:50:18.462Z,17.01
2019-03-09T02:52:46.480Z,16.96
2019-03-09T02:55:14.451Z,16.98
2019-03-09T02:57:44.282Z,16.72
2019-03-09T03:00:14.723Z,16.66
2019-03-09T03:02:46.030Z,16.51
2019-03-09T03:05:14.224Z,16.68
2019-03-09T03:07:41.913Z,16.47
2019-03-09T03:10:10.376Z,16.51
2019-03-09T03:12:38.241Z,16.47
2019-03-09T03:15:06.528Z,16.45
2019-03-09T03:17:34.381Z,16.95
2019-03-09T03:20:04.086Z,18.08
2019-03-09T03:22:32.545Z,18.65
2019-03-09T03:25:00.922Z,19.07
2019-03-09T03:27:28.990Z,19.35
2019-03-09T03:29:57.447Z,19.53
2019-03-09T03:32:28.460Z,19.72
2019-03-09T03:34:56.114Z,19.85
2019-03-09T03:37:23.779Z,19.98
2019-03-09T03:39:51.790Z,20.09
2019-03-09T03:42:19.960Z,20.17
2019-03-09T03:44:47.678Z,20.26
2019-03-09T03:47:16.317Z,20.34
2019-03-09T03:49:44.296Z,20.38
2019-03-09T03:52:12.759Z,19.92
2019-03-09T03:54:40.761Z,20.52
2019-03-09T03:57:08.527Z,20.52
2019-03-09T03:59:36.759Z,20.60
2019-03-09T04:02:04.521Z,20.64
2019-03-09T04:04:32.445Z,20.68
2019-03-09T04:07:00.154Z,20.70
2019-03-09T04:09:28.010Z,20.72
2019-03-09T04:11:55.888Z,20.74
2019-03-09T04:14:24.594Z,20.78
2019-03-09T04:16:52.376Z,20.82
2019-03-09T04:19:20.396Z,20.85
2019-03-09T04:21:48.223Z,20.89
2019-03-09T04:24:16.433Z,20.88
2019-03-09T04:26:44.724Z,20.90
2019-03-09T04:29:12.948Z,20.90
2019-03-09T04:31:40.792Z,20.90
2019-03-09T04:34:09.127Z,20.97
2019-03-09T04:36:36.821Z,20.98
2019-03-09T04:39:05.260Z,21.00
2019-03-09T04:41:33.528Z,21.02
2019-03-09T04:44:02.010Z,21.06
2019-03-09T04:46:30.579Z,21.09
2019-03-09T04:48:59.221Z,21.10
2019-03-09T04:51:27.342Z,21.13
2019-03-09T04:53:56.025Z,21.14
2019-03-09T04:56:23.767Z,21.19
2019-03-09T04:58:51.522Z,21.21
2019-03-09T05:01:19.380Z,21.26
2019-03-09T05:04:03.078Z,21.27
2019-03-09T05:06:31.173Z,21.26
2019-03-09T05:10:12.507Z,21.31
2019-03-09T05:12:41.022Z,21.33
2019-03-09T05:15:09.996Z,21.35
2019-03-09T05:17:38.763Z,21.42
2019-03-09T05:20:06.617Z,21.45
2019-03-09T05:22:34.911Z,21.46
2019-03-09T05:25:02.795Z,21.45
2019-03-09T05:27:31.226Z,21.48
2019-03-09T05:29:59.271Z,21.52
2019-03-09T05:32:28.000Z,21.52
2019-03-09T05:34:55.901Z,21.53
2019-03-09T05:37:23.936Z,21.57
2019-03-09T05:39:51.721Z,21.60
2019-03-09T05:42:19.767Z,21.60
2019-03-09T05:44:48.088Z,21.58
2019-03-09T05:47:16.009Z,21.59
2019-03-09T05:49:44.007Z,21.63
2019-03-09T05:52:35.129Z,21.67
2019-03-09T05:55:11.724Z,21.67
2019-03-09T05:57:39.494Z,21.71
2019-03-09T06:00:08.733Z,21.66
2019-03-09T06:02:36.458Z,21.69
2019-03-09T06:05:19.982Z,21.71
2019-03-09T06:07:48.017Z,21.71
2019-03-09T06:10:16.147Z,21.77
2019-03-09T06:12:44.482Z,21.79
2019-03-09T06:15:12.432Z,21.81
2019-03-09T06:17:40.571Z,21.80
2019-03-09T06:20:09.047Z,21.82
2019-03-09T06:22:37.211Z,21.83
2019-03-09T06:25:05.455Z,21.86
2019-03-09T06:27:34.179Z,21.85
2019-03-09T06:30:02.331Z,21.87
2019-03-09T06:33:27.040Z,21.90
2019-03-09T06:36:48.516Z,21.94
2019-03-09T06:39:39.676Z,21.91
2019-03-09T06:42:38.544Z,21.95
2019-03-09T06:45:15.928Z,21.96
2019-03-09T06:47:43.586Z,21.99
2019-03-09T06:50:15.148Z,22.00
2019-03-09T06:52:42.894Z,22.02
2019-03-09T06:55:11.342Z,22.06
2019-03-09T06:57:39.158Z,22.06
2019-03-09T07:00:31.860Z,22.07
2019-03-09T07:02:59.773Z,22.10
2019-03-09T07:05:28.598Z,22.08
2019-03-09T07:07:56.433Z,22.09
2019-03-09T07:10:24.223Z,22.12
2019-03-09T07:12:52.186Z,22.12
2019-03-09T07:15:29.524Z,22.12
2019-03-09T07:18:16.042Z,22.13
2019-03-09T07:20:44.318Z,22.16
2019-03-09T07:23:12.233Z,22.19
2019-03-09T07:25:40.240Z,22.22
2019-03-09T07:28:10.894Z,22.22
2019-03-09T07:30:38.833Z,22.24
2019-03-09T07:33:06.701Z,22.27
2019-03-09T07:35:34.743Z,22.27
2019-03-09T07:38:02.459Z,22.31
2019-03-09T07:40:30.489Z,22.33
2019-03-09T07:42:59.653Z,22.36
2019-03-09T07:45:28.194Z,22.46
2019-03-09T07:47:56.804Z,22.49
2019-03-09T07:50:24.641Z,22.55
2019-03-09T07:52:52.401Z,22.59
2019-03-09T07:55:20.548Z,22.61
2019-03-09T07:57:48.566Z,22.65
2019-03-09T08:00:18.672Z,22.66
2019-03-09T08:02:46.512Z,22.69
2019-03-09T08:05:14.547Z,22.73
2019-03-09T08:07:42.655Z,22.75
2019-03-09T08:10:18.821Z,22.78
2019-03-09T08:12:47.092Z,22.83
2019-03-09T08:15:16.371Z,22.84
2019-03-09T08:17:44.114Z,22.89
2019-03-09T08:20:11.983Z,22.89
2019-03-09T08:22:41.078Z,22.90
2019-03-09T08:25:10.795Z,22.91
2019-03-09T08:27:40.014Z,22.91
2019-03-09T08:30:14.555Z,22.91
2019-03-09T08:32:42.395Z,22.93
2019-03-09T08:35:10.774Z,22.91
2019-03-09T08:37:39.516Z,22.90
2019-03-09T08:40:09.099Z,22.90
2019-03-09T08:42:37.250Z,22.92
2019-03-09T08:45:05.516Z,22.94
2019-03-09T08:47:33.990Z,22.96
2019-03-09T08:50:01.986Z,22.99
2019-03-09T08:52:29.835Z,23.02
2019-03-09T08:54:58.452Z,23.03
2019-03-09T08:57:27.369Z,23.06
2019-03-09T08:59:55.621Z,23.07
2019-03-09T09:02:25.264Z,23.06
2019-03-09T09:04:53.357Z,23.08
2019-03-09T09:07:21.697Z,23.08
2019-03-09T09:09:49.584Z,23.10
2019-03-09T09:12:17.359Z,23.12
2019-03-09T09:14:46.281Z,23.15
2019-03-09T09:17:14.628Z,23.19
2019-03-09T09:19:42.715Z,23.17
2019-03-09T09:22:10.454Z,23.24
2019-03-09T09:24:38.191Z,23.38
2019-03-09T09:27:06.699Z,23.35
2019-03-09T09:29:34.555Z,23.30
2019-03-09T09:32:02.572Z,23.30
2019-03-09T09:34:30.872Z,23.30
2019-03-09T09:36:58.727Z,23.32
2019-03-09T09:39:26.649Z,23.31
2019-03-09T09:41:55.629Z,23.27
2019-03-09T09:44:23.736Z,23.27
2019-03-09T09:46:51.878Z,23.37
2019-03-09T09:49:19.673Z,23.43
2019-03-09T09:51:47.897Z,23.47
2019-03-09T09:54:15.741Z,23.54
2019-03-09T09:56:43.616Z,23.61
2019-03-09T09:59:11.640Z,23.62
2019-03-09T10:01:39.522Z,23.70
2019-03-09T10:04:08.762Z,23.74
2019-03-09T10:06:36.578Z,23.74
2019-03-09T10:09:06.529Z,23.76
2019-03-09T10:11:34.698Z,23.85
2019-03-09T10:14:04.795Z,23.89
2019-03-09T10:16:32.510Z,23.88
2019-03-09T10:19:01.131Z,23.86
2019-03-09T10:21:29.120Z,23.90
2019-03-09T10:23:57.118Z,23.92
2019-03-09T10:26:26.745Z,23.92
2019-03-09T10:28:54.816Z,23.90
2019-03-09T10:31:23.131Z,23.92
2019-03-09T10:33:51.359Z,24.04
2019-03-09T10:36:19.293Z,24.06
2019-03-09T10:38:47.463Z,24.10
2019-03-09T10:41:16.040Z,24.22
2019-03-09T10:43:44.032Z,24.27
2019-03-09T10:46:12.003Z,24.31
2019-03-09T10:48:39.842Z,24.25
2019-03-09T10:51:07.863Z,24.16
2019-03-09T10:53:35.737Z,24.11
2019-03-09T10:56:03.716Z,24.05
2019-03-09T10:58:31.719Z,24.06
2019-03-09T11:00:59.821Z,24.01
2019-03-09T11:03:27.704Z,24.01
2019-03-09T11:05:56.383Z,23.97
2019-03-09T11:08:24.203Z,23.93
2019-03-09T11:10:52.102Z,23.89
2019-03-09T11:13:19.976Z,23.96
2019-03-09T11:15:48.233Z,24.02
2019-03-09T11:18:16.317Z,24.09
2019-03-09T11:20:44.226Z,24.18
2019-03-09T11:23:11.904Z,24.22
2019-03-09T11:25:39.777Z,24.34
2019-03-09T11:28:12.466Z,24.34
2019-03-09T11:30:40.306Z,24.40
2019-03-09T11:33:10.450Z,24.40
2019-03-09T11:35:38.523Z,24.31
2019-03-09T11:38:06.214Z,24.24
2019-03-09T11:40:34.131Z,24.22
2019-03-09T11:43:03.100Z,24.39
2019-03-09T11:45:30.831Z,24.43
2019-03-09T11:47:58.936Z,24.46
2019-03-09T11:50:27.264Z,24.56
2019-03-09T11:52:55.367Z,24.61
2019-03-09T11:55:24.981Z,24.60
2019-03-09T11:57:53.636Z,24.63
2019-03-09T12:00:25.971Z,24.62
2019-03-09T12:02:54.624Z,24.60
2019-03-09T12:05:22.498Z,24.60
2019-03-09T12:07:50.853Z,24.57
2019-03-09T12:10:18.950Z,24.58
2019-03-09T12:12:47.702Z,24.54
2019-03-09T12:15:16.134Z,24.54
2019-03-09T12:17:44.003Z,24.58
2019-03-09T12:20:12.818Z,24.55
2019-03-09T12:22:41.357Z,24.58
2019-03-09T12:25:09.658Z,24.59
2019-03-09T12:27:37.466Z,24.61
2019-03-09T12:30:07.181Z,24.68
2019-03-09T12:32:35.206Z,24.67
2019-03-09T12:35:03.315Z,24.70
2019-03-09T12:37:31.061Z,24.71
2019-03-09T12:39:59.152Z,24.72
2019-03-09T12:42:27.391Z,24.73
2019-03-09T12:44:55.115Z,24.74
2019-03-09T12:47:24.016Z,24.73
2019-03-09T12:49:51.962Z,24.74
2019-03-09T12:52:20.425Z,24.78
2019-03-09T12:54:48.696Z,24.80
2019-03-09T12:57:17.578Z,24.85
2019-03-09T12:59:45.562Z,24.91
2019-03-09T13:02:13.689Z,24.95
2019-03-09T13:04:42.991Z,24.99
2019-03-09T13:07:11.109Z,25.01
2019-03-09T13:09:38.942Z,25.00
2019-03-09T13:12:08.739Z,25.03
2019-03-09T13:14:36.493Z,25.02
2019-03-09T13:17:04.332Z,25.06
2019-03-09T13:19:32.230Z,25.09
2019-03-09T13:21:59.938Z,25.15
2019-03-09T13:24:27.770Z,25.17
2019-03-09T13:26:55.974Z,25.18
2019-03-09T13:29:23.760Z,25.17
2019-03-09T13:31:54.733Z,25.10
2019-03-09T13:34:25.174Z,25.14
2019-03-09T13:36:52.743Z,25.06
2019-03-09T13:39:21.094Z,25.07
2019-03-09T13:41:49.217Z,25.06
2019-03-09T13:44:17.583Z,25.10
2019-03-09T13:46:46.173Z,24.78
2019-03-09T13:49:15.300Z,24.94
2019-03-09T13:51:43.955Z,24.83
2019-03-09T13:54:12.657Z,24.76
2019-03-09T13:56:41.047Z,24.73
2019-03-09T13:59:09.691Z,24.68
2019-03-09T14:01:38.529Z,24.68
2019-03-09T14:04:06.279Z,24.67
2019-03-09T14:06:34.941Z,24.62
2019-03-09T14:09:03.382Z,24.57
2019-03-09T14:11:31.542Z,24.56
2019-03-09T14:14:00.271Z,24.51
2019-03-09T14:16:28.485Z,24.48
2019-03-09T14:18:56.802Z,24.45
2019-03-09T14:21:24.951Z,24.40
2019-03-09T14:23:53.807Z,24.39
2019-03-09T14:26:21.774Z,24.39
2019-03-09T14:28:50.470Z,24.40
2019-03-09T14:31:18.438Z,24.39
2019-03-09T14:33:47.135Z,24.38
2019-03-09T14:36:15.463Z,24.40
2019-03-09T14:38:43.492Z,24.39
2019-03-09T14:41:12.847Z,24.37
2019-03-09T14:43:40.993Z,24.40
2019-03-09T14:46:08.963Z,24.38
2019-03-09T14:48:36.864Z,24.36
2019-03-09T14:51:04.664Z,24.35
2019-03-09T14:53:32.926Z,24.41
2019-03-09T14:56:01.364Z,24.50
2019-03-09T14:58:29.949Z,24.56
2019-03-09T15:00:57.898Z,24.57
2019-03-09T15:03:26.749Z,24.60
2019-03-09T15:05:54.865Z,24.64
2019-03-09T15:08:23.321Z,24.62
2019-03-09T15:10:52.841Z,24.59
2019-03-09T15:13:21.791Z,24.68
2019-03-09T15:15:51.652Z,24.65
2019-03-09T15:18:19.809Z,24.65
2019-03-09T15:20:48.770Z,24.63
2019-03-09T15:23:18.596Z,24.64
2019-03-09T15:25:46.580Z,24.56
2019-03-09T15:28:14.526Z,24.58
2019-03-09T15:30:44.270Z,24.55
2019-03-09T15:33:12.563Z,24.55
2019-03-09T15:35:40.298Z,24.54
2019-03-09T15:38:08.092Z,24.52
2019-03-09T15:40:37.563Z,24.52
2019-03-09T15:43:05.661Z,24.49
2019-03-09T15:45:33.615Z,24.46
2019-03-09T15:48:01.465Z,24.44
2019-03-09T15:50:29.456Z,24.40
2019-03-09T15:52:58.381Z,24.40
2019-03-09T15:55:27.148Z,24.37
2019-03-09T15:57:54.913Z,24.36
2019-03-09T16:00:22.773Z,24.35
2019-03-09T16:02:50.591Z,24.35
2019-03-09T16:05:18.969Z,24.33
2019-03-09T16:07:47.475Z,24.33
2019-03-09T16:10:16.127Z,24.29
2019-03-09T16:12:43.927Z,24.26
2019-03-09T16:15:12.721Z,24.28
2019-03-09T16:17:41.078Z,24.28
2019-03-09T16:20:11.852Z,24.27
2019-03-09T16:22:40.667Z,24.25
2019-03-09T16:25:08.605Z,24.23
2019-03-09T16:27:36.595Z,24.24
2019-03-09T16:30:04.708Z,24.22
2019-03-09T16:32:33.548Z,24.20
2019-03-09T16:35:01.417Z,24.18
2019-03-09T16:37:29.247Z,24.16
2019-03-09T16:39:57.167Z,24.16
2019-03-09T16:42:24.968Z,24.13
2019-03-09T16:44:52.873Z,24.13
2019-03-09T16:47:20.776Z,24.09
2019-03-09T16:49:48.527Z,24.08
2019-03-09T16:52:16.905Z,24.07
2019-03-09T16:54:44.753Z,24.06
2019-03-09T16:57:13.413Z,23.98
2019-03-09T16:59:41.233Z,24.01
2019-03-09T17:02:09.205Z,23.99
2019-03-09T17:04:37.274Z,24.00
2019-03-09T17:07:05.097Z,23.95
2019-03-09T17:09:32.982Z,23.94
2019-03-09T17:12:00.875Z,23.92
2019-03-09T17:14:29.271Z,23.89
2019-03-09T17:16:57.504Z,23.86
2019-03-09T17:19:25.402Z,23.86
2019-03-09T17:21:53.098Z,23.82
2019-03-09T17:24:22.313Z,23.81
2019-03-09T17:26:50.062Z,23.84
2019-03-09T17:29:18.776Z,23.84
2019-03-09T17:31:46.649Z,23.82
2019-03-09T17:34:14.521Z,23.79
2019-03-09T17:36:42.479Z,23.78
2019-03-09T17:39:10.876Z,23.76
2019-03-09T17:41:38.705Z,23.74
2019-03-09T17:44:06.615Z,23.76
2019-03-09T17:46:34.399Z,23.76
2019-03-09T17:49:03.298Z,23.76
2019-03-09T17:51:31.623Z,23.76
2019-03-09T17:53:59.863Z,23.75
2019-03-09T17:56:28.422Z,23.71
2019-03-09T17:58:56.457Z,23.72
2019-03-09T18:01:24.178Z,23.71
2019-03-09T18:03:52.667Z,23.68
2019-03-09T18:06:21.016Z,23.67
2019-03-09T18:08:48.791Z,23.66
2019-03-09T18:11:16.675Z,23.67
2019-03-09T18:13:44.524Z,23.67
2019-03-09T18:16:12.439Z,23.65
2019-03-09T18:18:40.293Z,23.66
2019-03-09T18:21:08.465Z,23.66
2019-03-09T18:23:36.945Z,23.67
2019-03-09T18:26:04.668Z,23.66
2019-03-09T18:28:33.708Z,23.64
2019-03-09T18:31:01.714Z,23.64
2019-03-09T18:33:29.414Z,23.65
2019-03-09T18:35:57.206Z,23.61
2019-03-09T18:38:25.245Z,23.63
2019-03-09T18:40:53.190Z,23.64
2019-03-09T18:43:21.069Z,23.62
2019-03-09T18:45:48.919Z,23.59
2019-03-09T18:48:17.482Z,23.60
2019-03-09T18:50:45.291Z,23.61
2019-03-09T18:53:13.481Z,23.60
2019-03-09T18:55:42.054Z,23.60
2019-03-09T18:58:11.008Z,23.60
2019-03-09T19:00:38.891Z,23.60
2019-03-09T19:03:08.736Z,23.60
2019-03-09T19:05:36.717Z,23.59
2019-03-09T19:08:05.028Z,23.58
2019-03-09T19:10:33.104Z,23.58
2019-03-09T19:13:01.801Z,23.58
2019-03-09T19:15:29.867Z,23.58
2019-03-09T19:17:58.056Z,23.57
2019-03-09T19:20:26.221Z,23.57
2019-03-09T19:22:54.980Z,23.57
2019-03-09T19:25:23.249Z,23.33
2019-03-09T19:27:51.341Z,23.58
2019-03-09T19:30:19.376Z,23.56
2019-03-09T19:32:47.262Z,23.56
2019-03-09T19:35:15.178Z,23.57
2019-03-09T19:37:43.312Z,23.55
2019-03-09T19:40:13.061Z,23.54
2019-03-09T19:42:40.914Z,23.54
2019-03-09T19:45:10.298Z,23.55
2019-03-09T19:47:38.751Z,23.54
2019-03-09T19:50:09.791Z,23.53
2019-03-09T19:52:38.711Z,23.53
2019-03-09T19:55:07.163Z,23.55
2019-03-09T19:57:35.535Z,23.54
2019-03-09T20:00:04.127Z,23.52
2019-03-09T20:02:32.039Z,23.53
2019-03-09T20:05:00.464Z,23.54
2019-03-09T20:07:28.809Z,23.55
2019-03-09T20:09:56.589Z,23.53
2019-03-09T20:12:24.886Z,23.53
2019-03-09T20:14:52.840Z,23.56
2019-03-09T20:17:20.869Z,23.55
2019-03-09T20:19:48.725Z,23.55
2019-03-09T20:22:16.913Z,23.54
2019-03-09T20:24:44.777Z,23.53
2019-03-09T20:27:12.974Z,23.52
2019-03-09T20:29:41.405Z,23.52
2019-03-09T20:32:09.330Z,23.53
2019-03-09T20:34:37.328Z,23.52
2019-03-09T20:37:05.446Z,23.52
2019-03-09T20:39:34.979Z,23.52
2019-03-09T20:42:03.320Z,23.53
2019-03-09T20:44:31.426Z,23.49
2019-03-09T20:47:00.585Z,23.48
2019-03-09T20:49:28.427Z,23.48
2019-03-09T20:51:57.078Z,23.50
2019-03-09T20:54:25.747Z,23.51
2019-03-09T20:56:54.620Z,23.48
2019-03-09T20:59:22.512Z,23.48
2019-03-09T21:01:50.388Z,23.48
2019-03-09T21:04:18.464Z,23.51
2019-03-09T21:06:46.230Z,23.50
2019-03-09T21:09:15.250Z,23.51
2019-03-09T21:11:43.845Z,23.49
2019-03-09T21:14:11.991Z,23.49
2019-03-09T21:16:40.099Z,23.50
2019-03-09T21:19:08.630Z,23.50
2019-03-09T21:21:38.090Z,23.48
2019-03-09T21:24:05.915Z,23.48
2019-03-09T21:26:33.972Z,23.44
2019-03-09T21:29:01.720Z,23.44
2019-03-09T21:31:30.822Z,23.44
2019-03-09T21:33:59.510Z,23.46
2019-03-09T21:36:29.266Z,23.47
2019-03-09T21:38:57.494Z,23.46
2019-03-09T21:41:26.834Z,23.46
2019-03-09T21:43:55.596Z,23.43
2019-03-09T21:46:24.403Z,23.45
2019-03-09T21:48:52.492Z,23.43
2019-03-09T21:51:20.836Z,23.43
2019-03-09T21:53:48.900Z,23.43
2019-03-09T21:56:17.118Z,23.43
2019-03-09T21:58:44.848Z,23.43
2019-03-09T22:01:13.225Z,23.44
2019-03-09T22:03:41.498Z,23.43
2019-03-09T22:06:09.302Z,23.43
2019-03-09T22:08:37.187Z,23.41
2019-03-09T22:11:05.204Z,23.43
2019-03-09T22:13:33.217Z,23.42
2019-03-09T22:16:01.538Z,23.41
2019-03-09T22:18:29.374Z,23.41
2019-03-09T22:20:57.475Z,23.41
2019-03-09T22:23:25.505Z,23.40
2019-03-09T22:25:53.498Z,23.39
2019-03-09T22:28:21.835Z,23.40
2019-03-09T22:30:50.226Z,23.40
2019-03-09T22:33:19.845Z,23.37
2019-03-09T22:35:47.825Z,23.37
2019-03-09T22:38:15.936Z,23.39
2019-03-09T22:40:44.116Z,23.40
2019-03-09T22:43:11.920Z,23.39
2019-03-09T22:45:39.636Z,23.37
2019-03-09T22:48:08.448Z,23.37
2019-03-09T22:50:36.204Z,23.38
2019-03-09T22:53:05.239Z,23.36
2019-03-09T22:55:33.006Z,23.36
2019-03-09T22:58:00.833Z,23.35
2019-03-09T23:00:28.854Z,23.36
2019-03-09T23:02:56.894Z,23.37
2019-03-09T23:05:24.730Z,23.36
2019-03-09T23:07:53.502Z,23.36
2019-03-09T23:10:21.366Z,23.33
2019-03-09T23:12:49.130Z,23.32
2019-03-09T23:15:17.371Z,23.34
2019-03-09T23:17:45.732Z,23.38
2019-03-09T23:20:13.692Z,23.50
2019-03-09T23:22:41.768Z,23.43
2019-03-09T23:25:09.591Z,23.39
2019-03-09T23:27:37.427Z,23.37
2019-03-09T23:30:10.697Z,23.34
2019-03-09T23:32:42.179Z,23.38
2019-03-09T23:35:10.904Z,23.36
2019-03-09T23:37:40.486Z,23.36
2019-03-09T23:40:09.313Z,23.34
2019-03-09T23:42:39.625Z,23.33
2019-03-09T23:45:10.928Z,23.36
2019-03-09T23:47:46.249Z,23.34
2019-03-09T23:50:15.583Z,23.34
2019-03-09T23:52:47.218Z,23.34
2019-03-09T23:55:21.937Z,23.33
2019-03-09T23:57:49.793Z,23.33
